sensor_id;sensor_type;location;lat;lon;timestamp;P1;durP1;ratioP1;P2;durP2;ratioP2
27257;SDS011;62045;49.986;8.672;2022-10-16T00:03:58;3.55;;;3.25;;
27257;SDS011;62045;49.986;8.672;2022-10-16T00:09:00;3.47;;;2.92;;
27257;SDS011;62045;49.986;8.672;2022-10-16T00:14:01;2.88;;;2.58;;
27257;SDS011;62045;49.986;8.672;2022-10-16T00:19:05;3.07;;;2.70;;
27257;SDS011;62045;49.986;8.672;2022-10-16T00:24:07;2.90;;;2.60;;
27257;SDS011;62045;49.986;8.672;2022-10-16T00:29:08;2.85;;;2.63;;
27257;SDS011;62045;49.986;8.672;2022-10-16T00:34:11;2.90;;;2.60;;
27257;SDS011;62045;49.986;8.672;2022-10-16T00:39:12;2.95;;;2.60;;
27257;SDS011;62045;49.986;8.672;2022-10-16T00:49:47;2.70;;;2.45;;
27257;SDS011;62045;49.986;8.672;2022-10-16T00:54:51;2.67;;;2.47;;
27257;SDS011;62045;49.986;8.672;2022-10-16T00:59:53;2.53;;;2.33;;
27257;SDS011;62045;49.986;8.672;2022-10-16T01:04:56;2.58;;;2.38;;
27257;SDS011;62045;49.986;8.672;2022-10-16T01:10:01;2.58;;;2.38;;
27257;SDS011;62045;49.986;8.672;2022-10-16T01:15:12;2.65;;;2.22;;
27257;SDS011;62045;49.986;8.672;2022-10-16T01:20:23;2.42;;;2.10;;
27257;SDS011;62045;49.986;8.672;2022-10-16T01:25:30;2.83;;;2.22;;
27257;SDS011;62045;49.986;8.672;2022-10-16T01:30:48;2.33;;;2.00;;
27257;SDS011;62045;49.986;8.672;2022-10-16T01:35:56;2.40;;;2.00;;
27257;SDS011;62045;49.986;8.672;2022-10-16T01:41:04;2.40;;;1.95;;
27257;SDS011;62045;49.986;8.672;2022-10-16T01:46:10;3.60;;;1.88;;
27257;SDS011;62045;49.986;8.672;2022-10-16T01:51:16;2.20;;;1.90;;
27257;SDS011;62045;49.986;8.672;2022-10-16T02:01:22;2.40;;;1.90;;
27257;SDS011;62045;49.986;8.672;2022-10-16T02:06:25;2.35;;;1.88;;
27257;SDS011;62045;49.986;8.672;2022-10-16T02:11:26;2.03;;;1.65;;
27257;SDS011;62045;49.986;8.672;2022-10-16T02:16:33;1.95;;;1.55;;
27257;SDS011;62045;49.986;8.672;2022-10-16T02:21:38;2.15;;;1.75;;
27257;SDS011;62045;49.986;8.672;2022-10-16T02:26:43;2.42;;;1.70;;
27257;SDS011;62045;49.986;8.672;2022-10-16T02:31:50;2.55;;;1.60;;
27257;SDS011;62045;49.986;8.672;2022-10-16T02:36:55;2.00;;;1.70;;
27257;SDS011;62045;49.986;8.672;2022-10-16T02:41:57;1.90;;;1.50;;
27257;SDS011;62045;49.986;8.672;2022-10-16T02:47:00;1.90;;;1.40;;
27257;SDS011;62045;49.986;8.672;2022-10-16T02:52:00;1.80;;;1.40;;
27257;SDS011;62045;49.986;8.672;2022-10-16T02:57:02;2.38;;;1.40;;
27257;SDS011;62045;49.986;8.672;2022-10-16T03:02:04;2.00;;;1.60;;
27257;SDS011;62045;49.986;8.672;2022-10-16T03:07:05;1.65;;;1.25;;
27257;SDS011;62045;49.986;8.672;2022-10-16T03:12:06;1.90;;;1.40;;
27257;SDS011;62045;49.986;8.672;2022-10-16T03:17:08;1.73;;;1.40;;
27257;SDS011;62045;49.986;8.672;2022-10-16T03:22:09;1.90;;;1.50;;
27257;SDS011;62045;49.986;8.672;2022-10-16T03:27:10;2.05;;;1.30;;
27257;SDS011;62045;49.986;8.672;2022-10-16T03:32:12;1.77;;;1.30;;
27257;SDS011;62045;49.986;8.672;2022-10-16T03:37:13;1.58;;;1.20;;
27257;SDS011;62045;49.986;8.672;2022-10-16T03:42:14;2.05;;;1.20;;
27257;SDS011;62045;49.986;8.672;2022-10-16T03:47:16;1.50;;;1.10;;
27257;SDS011;62045;49.986;8.672;2022-10-16T03:52:17;1.60;;;1.13;;
27257;SDS011;62045;49.986;8.672;2022-10-16T03:57:18;1.67;;;1.20;;
27257;SDS011;62045;49.986;8.672;2022-10-16T04:02:20;1.83;;;1.20;;
27257;SDS011;62045;49.986;8.672;2022-10-16T04:07:21;1.40;;;1.05;;
27257;SDS011;62045;49.986;8.672;2022-10-16T04:12:22;1.75;;;1.10;;
27257;SDS011;62045;49.986;8.672;2022-10-16T04:17:24;1.90;;;1.20;;
27257;SDS011;62045;49.986;8.672;2022-10-16T04:22:25;1.70;;;1.20;;
27257;SDS011;62045;49.986;8.672;2022-10-16T04:27:25;1.65;;;1.17;;
27257;SDS011;62045;49.986;8.672;2022-10-16T04:32:27;1.83;;;1.13;;
27257;SDS011;62045;49.986;8.672;2022-10-16T04:37:28;1.45;;;0.90;;
27257;SDS011;62045;49.986;8.672;2022-10-16T04:42:29;1.40;;;1.00;;
27257;SDS011;62045;49.986;8.672;2022-10-16T04:47:31;1.58;;;1.17;;
27257;SDS011;62045;49.986;8.672;2022-10-16T04:52:32;1.35;;;0.90;;
27257;SDS011;62045;49.986;8.672;2022-10-16T04:57:33;3.60;;;1.38;;
27257;SDS011;62045;49.986;8.672;2022-10-16T05:02:35;2.00;;;1.50;;
27257;SDS011;62045;49.986;8.672;2022-10-16T05:07:36;3.97;;;1.20;;
27257;SDS011;62045;49.986;8.672;2022-10-16T05:12:37;1.75;;;1.23;;
27257;SDS011;62045;49.986;8.672;2022-10-16T05:17:39;1.90;;;1.30;;
27257;SDS011;62045;49.986;8.672;2022-10-16T05:22:40;1.50;;;1.17;;
27257;SDS011;62045;49.986;8.672;2022-10-16T05:27:41;1.15;;;0.93;;
27257;SDS011;62045;49.986;8.672;2022-10-16T05:32:46;1.83;;;1.10;;
27257;SDS011;62045;49.986;8.672;2022-10-16T05:37:48;1.92;;;1.10;;
27257;SDS011;62045;49.986;8.672;2022-10-16T05:42:49;1.60;;;1.05;;
27257;SDS011;62045;49.986;8.672;2022-10-16T05:47:51;1.38;;;1.00;;
27257;SDS011;62045;49.986;8.672;2022-10-16T05:52:52;1.35;;;0.98;;
27257;SDS011;62045;49.986;8.672;2022-10-16T05:57:53;1.50;;;1.00;;
27257;SDS011;62045;49.986;8.672;2022-10-16T06:02:56;1.67;;;1.00;;
27257;SDS011;62045;49.986;8.672;2022-10-16T06:07:57;1.15;;;0.90;;
27257;SDS011;62045;49.986;8.672;2022-10-16T06:12:57;1.25;;;0.90;;
27257;SDS011;62045;49.986;8.672;2022-10-16T06:18:00;2.42;;;1.00;;
27257;SDS011;62045;49.986;8.672;2022-10-16T06:23:00;1.95;;;1.10;;
27257;SDS011;62045;49.986;8.672;2022-10-16T06:28:01;1.40;;;1.00;;
27257;SDS011;62045;49.986;8.672;2022-10-16T06:33:03;1.40;;;0.90;;
27257;SDS011;62045;49.986;8.672;2022-10-16T06:38:04;1.27;;;0.90;;
27257;SDS011;62045;49.986;8.672;2022-10-16T06:43:05;1.63;;;1.00;;
27257;SDS011;62045;49.986;8.672;2022-10-16T06:48:07;1.58;;;0.80;;
27257;SDS011;62045;49.986;8.672;2022-10-16T06:53:09;1.43;;;1.03;;
27257;SDS011;62045;49.986;8.672;2022-10-16T06:58:09;2.28;;;0.70;;
27257;SDS011;62045;49.986;8.672;2022-10-16T07:03:12;1.20;;;0.90;;
27257;SDS011;62045;49.986;8.672;2022-10-16T07:08:13;1.77;;;1.20;;
27257;SDS011;62045;49.986;8.672;2022-10-16T07:13:14;1.88;;;0.90;;
27257;SDS011;62045;49.986;8.672;2022-10-16T07:18:18;1.65;;;0.70;;
27257;SDS011;62045;49.986;8.672;2022-10-16T07:23:19;1.92;;;0.90;;
27257;SDS011;62045;49.986;8.672;2022-10-16T07:28:20;2.88;;;0.80;;
27257;SDS011;62045;49.986;8.672;2022-10-16T07:33:23;1.25;;;0.70;;
27257;SDS011;62045;49.986;8.672;2022-10-16T07:38:24;1.15;;;0.73;;
27257;SDS011;62045;49.986;8.672;2022-10-16T07:43:24;0.95;;;0.70;;
27257;SDS011;62045;49.986;8.672;2022-10-16T07:48:28;2.75;;;0.70;;
27257;SDS011;62045;49.986;8.672;2022-10-16T07:53:31;1.55;;;0.80;;
27257;SDS011;62045;49.986;8.672;2022-10-16T07:58:32;17.17;;;2.65;;
27257;SDS011;62045;49.986;8.672;2022-10-16T08:03:35;3.22;;;1.08;;
27257;SDS011;62045;49.986;8.672;2022-10-16T08:08:36;1.45;;;1.02;;
27257;SDS011;62045;49.986;8.672;2022-10-16T08:13:37;2.20;;;1.20;;
27257;SDS011;62045;49.986;8.672;2022-10-16T08:18:40;1.75;;;1.00;;
27257;SDS011;62045;49.986;8.672;2022-10-16T08:23:41;4.37;;;1.40;;
27257;SDS011;62045;49.986;8.672;2022-10-16T08:28:42;1.58;;;1.08;;
27257;SDS011;62045;49.986;8.672;2022-10-16T08:33:50;2.20;;;1.10;;
27257;SDS011;62045;49.986;8.672;2022-10-16T08:38:51;2.15;;;1.10;;
27257;SDS011;62045;49.986;8.672;2022-10-16T08:44:00;1.42;;;0.85;;
27257;SDS011;62045;49.986;8.672;2022-10-16T08:49:12;2.65;;;1.00;;
27257;SDS011;62045;49.986;8.672;2022-10-16T08:54:17;1.60;;;0.80;;
27257;SDS011;62045;49.986;8.672;2022-10-16T09:04:46;2.00;;;1.13;;
27257;SDS011;62045;49.986;8.672;2022-10-16T09:10:02;4.97;;;0.90;;
27257;SDS011;62045;49.986;8.672;2022-10-16T09:15:16;2.15;;;1.13;;
27257;SDS011;62045;49.986;8.672;2022-10-16T09:20:33;1.25;;;0.80;;
27257;SDS011;62045;49.986;8.672;2022-10-16T09:25:39;2.75;;;1.08;;
27257;SDS011;62045;49.986;8.672;2022-10-16T09:30:44;1.60;;;0.82;;
27257;SDS011;62045;49.986;8.672;2022-10-16T09:35:47;1.60;;;0.80;;
27257;SDS011;62045;49.986;8.672;2022-10-16T09:40:50;1.15;;;0.73;;
27257;SDS011;62045;49.986;8.672;2022-10-16T09:45:55;1.77;;;0.90;;
27257;SDS011;62045;49.986;8.672;2022-10-16T09:51:00;2.53;;;1.13;;
27257;SDS011;62045;49.986;8.672;2022-10-16T09:56:01;1.75;;;1.00;;
27257;SDS011;62045;49.986;8.672;2022-10-16T10:01:02;1.48;;;0.90;;
27257;SDS011;62045;49.986;8.672;2022-10-16T10:06:07;1.88;;;0.75;;
27257;SDS011;62045;49.986;8.672;2022-10-16T10:11:40;1.42;;;0.80;;
27257;SDS011;62045;49.986;8.672;2022-10-16T10:16:46;1.23;;;0.73;;
27257;SDS011;62045;49.986;8.672;2022-10-16T10:21:49;2.30;;;0.95;;
27257;SDS011;62045;49.986;8.672;2022-10-16T10:26:53;2.05;;;0.93;;
27257;SDS011;62045;49.986;8.672;2022-10-16T10:32:03;1.42;;;0.80;;
27257;SDS011;62045;49.986;8.672;2022-10-16T10:37:16;1.52;;;0.80;;
27257;SDS011;62045;49.986;8.672;2022-10-16T10:42:28;3.67;;;1.00;;
27257;SDS011;62045;49.986;8.672;2022-10-16T10:47:38;2.88;;;1.05;;
27257;SDS011;62045;49.986;8.672;2022-10-16T10:52:51;5.45;;;1.05;;
27257;SDS011;62045;49.986;8.672;2022-10-16T10:58:02;4.32;;;1.00;;
27257;SDS011;62045;49.986;8.672;2022-10-16T11:03:19;5.88;;;1.20;;
27257;SDS011;62045;49.986;8.672;2022-10-16T11:08:37;3.50;;;1.00;;
27257;SDS011;62045;49.986;8.672;2022-10-16T11:13:43;6.13;;;1.05;;
27257;SDS011;62045;49.986;8.672;2022-10-16T11:18:50;3.72;;;1.10;;
27257;SDS011;62045;49.986;8.672;2022-10-16T11:23:59;2.80;;;1.08;;
27257;SDS011;62045;49.986;8.672;2022-10-16T11:29:04;2.72;;;1.27;;
27257;SDS011;62045;49.986;8.672;2022-10-16T11:34:12;2.83;;;1.08;;
27257;SDS011;62045;49.986;8.672;2022-10-16T11:39:26;5.82;;;1.10;;
27257;SDS011;62045;49.986;8.672;2022-10-16T11:44:38;2.20;;;1.10;;
27257;SDS011;62045;49.986;8.672;2022-10-16T11:49:47;1.90;;;0.90;;
27257;SDS011;62045;49.986;8.672;2022-10-16T11:54:56;4.00;;;1.52;;
27257;SDS011;62045;49.986;8.672;2022-10-16T12:00:01;2.55;;;1.13;;
27257;SDS011;62045;49.986;8.672;2022-10-16T12:05:15;1.80;;;1.02;;
27257;SDS011;62045;49.986;8.672;2022-10-16T12:10:24;3.05;;;1.10;;
27257;SDS011;62045;49.986;8.672;2022-10-16T12:15:28;3.35;;;1.08;;
27257;SDS011;62045;49.986;8.672;2022-10-16T12:20:30;1.87;;;0.80;;
27257;SDS011;62045;49.986;8.672;2022-10-16T12:25:34;2.92;;;1.10;;
27257;SDS011;62045;49.986;8.672;2022-10-16T12:30:36;1.75;;;0.90;;
27257;SDS011;62045;49.986;8.672;2022-10-16T12:35:42;2.55;;;1.08;;
27257;SDS011;62045;49.986;8.672;2022-10-16T12:40:46;2.85;;;1.30;;
27257;SDS011;62045;49.986;8.672;2022-10-16T12:46:02;2.88;;;1.10;;
27257;SDS011;62045;49.986;8.672;2022-10-16T12:51:20;2.70;;;0.90;;
27257;SDS011;62045;49.986;8.672;2022-10-16T12:56:26;1.73;;;0.80;;
27257;SDS011;62045;49.986;8.672;2022-10-16T13:01:37;2.58;;;1.00;;
27257;SDS011;62045;49.986;8.672;2022-10-16T13:06:49;6.78;;;1.80;;
27257;SDS011;62045;49.986;8.672;2022-10-16T13:12:01;276.60;;;60.10;;
27257;SDS011;62045;49.986;8.672;2022-10-16T13:17:21;156.20;;;34.65;;
27257;SDS011;62045;49.986;8.672;2022-10-16T13:22:29;133.18;;;25.92;;
27257;SDS011;62045;49.986;8.672;2022-10-16T13:27:39;91.03;;;22.88;;
27257;SDS011;62045;49.986;8.672;2022-10-16T13:32:47;70.20;;;17.65;;
27257;SDS011;62045;49.986;8.672;2022-10-16T13:37:50;70.68;;;15.00;;
27257;SDS011;62045;49.986;8.672;2022-10-16T13:42:52;58.92;;;15.05;;
27257;SDS011;62045;49.986;8.672;2022-10-16T13:48:01;55.20;;;12.45;;
27257;SDS011;62045;49.986;8.672;2022-10-16T13:53:03;37.33;;;9.73;;
27257;SDS011;62045;49.986;8.672;2022-10-16T13:58:07;43.65;;;10.63;;
27257;SDS011;62045;49.986;8.672;2022-10-16T14:03:12;40.95;;;9.07;;
27257;SDS011;62045;49.986;8.672;2022-10-16T14:08:15;36.72;;;8.90;;
27257;SDS011;62045;49.986;8.672;2022-10-16T14:13:18;29.20;;;8.55;;
27257;SDS011;62045;49.986;8.672;2022-10-16T14:18:29;31.37;;;8.33;;
27257;SDS011;62045;49.986;8.672;2022-10-16T14:23:38;39.97;;;8.23;;
27257;SDS011;62045;49.986;8.672;2022-10-16T14:28:41;26.60;;;6.95;;
27257;SDS011;62045;49.986;8.672;2022-10-16T14:33:43;23.52;;;6.35;;
27257;SDS011;62045;49.986;8.672;2022-10-16T14:38:48;24.45;;;5.75;;
27257;SDS011;62045;49.986;8.672;2022-10-16T14:43:56;16.70;;;5.85;;
27257;SDS011;62045;49.986;8.672;2022-10-16T14:49:02;19.38;;;5.15;;
27257;SDS011;62045;49.986;8.672;2022-10-16T14:54:11;23.20;;;4.88;;
27257;SDS011;62045;49.986;8.672;2022-10-16T14:59:15;19.10;;;5.07;;
27257;SDS011;62045;49.986;8.672;2022-10-16T15:04:19;15.38;;;4.78;;
27257;SDS011;62045;49.986;8.672;2022-10-16T15:09:19;16.23;;;4.32;;
27257;SDS011;62045;49.986;8.672;2022-10-16T15:14:22;13.75;;;3.83;;
27257;SDS011;62045;49.986;8.672;2022-10-16T15:19:22;9.85;;;3.10;;
27257;SDS011;62045;49.986;8.672;2022-10-16T15:24:23;12.75;;;4.00;;
27257;SDS011;62045;49.986;8.672;2022-10-16T15:29:25;12.13;;;3.25;;
27257;SDS011;62045;49.986;8.672;2022-10-16T15:34:26;10.50;;;3.20;;
27257;SDS011;62045;49.986;8.672;2022-10-16T15:39:27;14.43;;;4.32;;
27257;SDS011;62045;49.986;8.672;2022-10-16T15:44:29;10.30;;;3.13;;
27257;SDS011;62045;49.986;8.672;2022-10-16T15:49:30;8.32;;;3.67;;
27257;SDS011;62045;49.986;8.672;2022-10-16T15:54:31;9.82;;;3.00;;
27257;SDS011;62045;49.986;8.672;2022-10-16T15:59:33;8.75;;;3.28;;
27257;SDS011;62045;49.986;8.672;2022-10-16T16:04:34;10.00;;;2.88;;
27257;SDS011;62045;49.986;8.672;2022-10-16T16:09:35;9.98;;;3.22;;
27257;SDS011;62045;49.986;8.672;2022-10-16T16:14:37;7.75;;;2.78;;
27257;SDS011;62045;49.986;8.672;2022-10-16T16:19:38;7.60;;;2.60;;
27257;SDS011;62045;49.986;8.672;2022-10-16T16:24:39;6.03;;;2.75;;
27257;SDS011;62045;49.986;8.672;2022-10-16T16:29:41;6.30;;;2.88;;
27257;SDS011;62045;49.986;8.672;2022-10-16T16:34:42;5.63;;;2.58;;
27257;SDS011;62045;49.986;8.672;2022-10-16T16:39:43;9.35;;;2.50;;
27257;SDS011;62045;49.986;8.672;2022-10-16T16:44:45;8.45;;;2.40;;
27257;SDS011;62045;49.986;8.672;2022-10-16T16:49:47;6.60;;;3.03;;
27257;SDS011;62045;49.986;8.672;2022-10-16T16:54:48;5.15;;;2.25;;
27257;SDS011;62045;49.986;8.672;2022-10-16T16:59:50;6.75;;;2.17;;
27257;SDS011;62045;49.986;8.672;2022-10-16T17:04:51;4.57;;;2.13;;
27257;SDS011;62045;49.986;8.672;2022-10-16T17:09:52;5.45;;;2.30;;
27257;SDS011;62045;49.986;8.672;2022-10-16T17:14:54;6.40;;;2.17;;
27257;SDS011;62045;49.986;8.672;2022-10-16T17:19:55;8.25;;;2.13;;
27257;SDS011;62045;49.986;8.672;2022-10-16T17:24:56;5.78;;;2.13;;
27257;SDS011;62045;49.986;8.672;2022-10-16T17:29:58;4.55;;;2.08;;
27257;SDS011;62045;49.986;8.672;2022-10-16T17:34:59;5.38;;;2.40;;
27257;SDS011;62045;49.986;8.672;2022-10-16T17:40:00;5.45;;;1.92;;
27257;SDS011;62045;49.986;8.672;2022-10-16T17:45:02;4.75;;;2.10;;
27257;SDS011;62045;49.986;8.672;2022-10-16T17:50:04;5.22;;;2.03;;
27257;SDS011;62045;49.986;8.672;2022-10-16T17:55:05;5.85;;;2.10;;
27257;SDS011;62045;49.986;8.672;2022-10-16T18:00:08;3.75;;;2.03;;
27257;SDS011;62045;49.986;8.672;2022-10-16T18:10:11;3.20;;;1.95;;
27257;SDS011;62045;49.986;8.672;2022-10-16T18:15:13;3.40;;;1.90;;
27257;SDS011;62045;49.986;8.672;2022-10-16T18:20:14;3.90;;;1.75;;
27257;SDS011;62045;49.986;8.672;2022-10-16T18:25:15;4.72;;;1.77;;
27257;SDS011;62045;49.986;8.672;2022-10-16T18:30:17;5.00;;;1.73;;
27257;SDS011;62045;49.986;8.672;2022-10-16T18:35:18;4.75;;;1.90;;
27257;SDS011;62045;49.986;8.672;2022-10-16T18:40:19;5.75;;;1.95;;
27257;SDS011;62045;49.986;8.672;2022-10-16T18:45:22;3.78;;;1.80;;
27257;SDS011;62045;49.986;8.672;2022-10-16T18:50:22;3.10;;;1.58;;
27257;SDS011;62045;49.986;8.672;2022-10-16T18:55:23;3.17;;;1.65;;
27257;SDS011;62045;49.986;8.672;2022-10-16T19:00:26;3.40;;;1.50;;
27257;SDS011;62045;49.986;8.672;2022-10-16T19:05:26;4.03;;;1.88;;
27257;SDS011;62045;49.986;8.672;2022-10-16T19:10:27;2.65;;;1.50;;
27257;SDS011;62045;49.986;8.672;2022-10-16T19:15:29;3.67;;;1.67;;
27257;SDS011;62045;49.986;8.672;2022-10-16T19:20:31;3.40;;;1.70;;
27257;SDS011;62045;49.986;8.672;2022-10-16T19:25:35;4.00;;;1.73;;
27257;SDS011;62045;49.986;8.672;2022-10-16T19:30:38;2.92;;;1.50;;
27257;SDS011;62045;49.986;8.672;2022-10-16T19:35:40;5.57;;;2.28;;
27257;SDS011;62045;49.986;8.672;2022-10-16T19:40:41;2.00;;;1.10;;
27257;SDS011;62045;49.986;8.672;2022-10-16T19:45:43;3.25;;;1.52;;
27257;SDS011;62045;49.986;8.672;2022-10-16T19:50:44;3.03;;;1.42;;
27257;SDS011;62045;49.986;8.672;2022-10-16T19:55:45;2.72;;;1.40;;
27257;SDS011;62045;49.986;8.672;2022-10-16T20:00:47;3.03;;;1.30;;
27257;SDS011;62045;49.986;8.672;2022-10-16T20:05:51;2.70;;;1.48;;
27257;SDS011;62045;49.986;8.672;2022-10-16T20:10:53;2.40;;;1.35;;
27257;SDS011;62045;49.986;8.672;2022-10-16T20:15:55;2.80;;;1.50;;
27257;SDS011;62045;49.986;8.672;2022-10-16T20:20:56;3.00;;;1.50;;
27257;SDS011;62045;49.986;8.672;2022-10-16T20:25:59;1.92;;;1.10;;
27257;SDS011;62045;49.986;8.672;2022-10-16T20:31:05;3.20;;;1.75;;
27257;SDS011;62045;49.986;8.672;2022-10-16T20:36:09;2.95;;;1.23;;
27257;SDS011;62045;49.986;8.672;2022-10-16T20:46:14;2.60;;;1.45;;
27257;SDS011;62045;49.986;8.672;2022-10-16T20:51:16;2.03;;;1.10;;
27257;SDS011;62045;49.986;8.672;2022-10-16T20:56:19;2.40;;;1.25;;
27257;SDS011;62045;49.986;8.672;2022-10-16T21:01:21;2.55;;;1.33;;
27257;SDS011;62045;49.986;8.672;2022-10-16T21:11:24;2.53;;;1.42;;
27257;SDS011;62045;49.986;8.672;2022-10-16T21:16:28;2.30;;;1.05;;
27257;SDS011;62045;49.986;8.672;2022-10-16T21:21:30;3.00;;;1.60;;
27257;SDS011;62045;49.986;8.672;2022-10-16T21:26:32;2.55;;;1.30;;
27257;SDS011;62045;49.986;8.672;2022-10-16T21:31:34;2.60;;;1.13;;
27257;SDS011;62045;49.986;8.672;2022-10-16T21:36:35;2.17;;;1.13;;
27257;SDS011;62045;49.986;8.672;2022-10-16T21:41:38;2.75;;;1.15;;
27257;SDS011;62045;49.986;8.672;2022-10-16T21:46:42;2.30;;;1.08;;
27257;SDS011;62045;49.986;8.672;2022-10-16T21:51:44;2.28;;;1.40;;
27257;SDS011;62045;49.986;8.672;2022-10-16T21:56:46;2.45;;;1.30;;
27257;SDS011;62045;49.986;8.672;2022-10-16T22:01:51;2.70;;;1.00;;
27257;SDS011;62045;49.986;8.672;2022-10-16T22:06:52;2.10;;;1.00;;
27257;SDS011;62045;49.986;8.672;2022-10-16T22:11:53;1.88;;;0.98;;
27257;SDS011;62045;49.986;8.672;2022-10-16T22:16:55;2.13;;;1.08;;
27257;SDS011;62045;49.986;8.672;2022-10-16T22:21:56;2.40;;;1.30;;
27257;SDS011;62045;49.986;8.672;2022-10-16T22:26:57;2.20;;;1.00;;
27257;SDS011;62045;49.986;8.672;2022-10-16T22:31:59;1.73;;;1.00;;
27257;SDS011;62045;49.986;8.672;2022-10-16T22:37:00;2.75;;;1.25;;
27257;SDS011;62045;49.986;8.672;2022-10-16T22:42:01;1.90;;;0.85;;
27257;SDS011;62045;49.986;8.672;2022-10-16T22:47:03;2.08;;;0.93;;
27257;SDS011;62045;49.986;8.672;2022-10-16T22:52:04;3.13;;;1.25;;
27257;SDS011;62045;49.986;8.672;2022-10-16T22:57:05;2.83;;;1.27;;
27257;SDS011;62045;49.986;8.672;2022-10-16T23:02:07;2.15;;;1.05;;
27257;SDS011;62045;49.986;8.672;2022-10-16T23:07:08;2.22;;;1.13;;
27257;SDS011;62045;49.986;8.672;2022-10-16T23:12:08;2.60;;;1.10;;
27257;SDS011;62045;49.986;8.672;2022-10-16T23:17:11;1.90;;;0.98;;
27257;SDS011;62045;49.986;8.672;2022-10-16T23:22:11;1.63;;;0.80;;
27257;SDS011;62045;49.986;8.672;2022-10-16T23:27:13;2.15;;;1.05;;
27257;SDS011;62045;49.986;8.672;2022-10-16T23:32:15;1.58;;;0.80;;
27257;SDS011;62045;49.986;8.672;2022-10-16T23:37:15;2.42;;;1.08;;
27257;SDS011;62045;49.986;8.672;2022-10-16T23:42:16;1.85;;;1.00;;
27257;SDS011;62045;49.986;8.672;2022-10-16T23:47:18;1.88;;;1.20;;
27257;SDS011;62045;49.986;8.672;2022-10-16T23:52:19;2.00;;;1.02;;
27257;SDS011;62045;49.986;8.672;2022-10-16T23:57:20;1.73;;;0.98;;
